createdAt,value
2017-05-21T00:00:31.191Z,16.8
2017-05-21T00:01:33.538Z,16.8
2017-05-21T00:02:36.388Z,16.8
2017-05-21T00:03:39.241Z,16.8
2017-05-21T00:04:42.091Z,16.8
2017-05-21T00:05:45.192Z,16.8
2017-05-21T00:06:47.540Z,16.8
2017-05-21T00:07:50.395Z,16.8
2017-05-21T00:08:53.245Z,16.8
2017-05-21T00:09:55.501Z,16.7
2017-05-21T00:10:58.611Z,16.7
2017-05-21T00:12:01.325Z,16.7
2017-05-21T00:13:04.175Z,16.7
2017-05-21T00:14:06.624Z,16.7
2017-05-21T00:15:09.475Z,16.7
2017-05-21T00:16:12.580Z,16.7
2017-05-21T00:17:14.801Z,16.7
2017-05-21T00:18:17.709Z,16.7
2017-05-21T00:19:20.559Z,16.7
2017-05-21T00:20:23.406Z,16.6
2017-05-21T00:21:26.509Z,16.6
2017-05-21T00:22:28.591Z,16.6
2017-05-21T00:23:31.815Z,16.6
2017-05-21T00:24:34.536Z,16.6
2017-05-21T00:25:37.383Z,16.6
2017-05-21T00:26:40.349Z,16.6
2017-05-21T00:27:42.570Z,16.6
2017-05-21T00:28:45.439Z,16.6
2017-05-21T00:29:48.289Z,16.6
2017-05-21T00:30:51.187Z,16.6
2017-05-21T00:31:54.338Z,16.6
2017-05-21T00:32:56.687Z,16.6
2017-05-21T00:33:59.541Z,16.6
2017-05-21T00:35:01.754Z,16.6
2017-05-21T00:36:04.971Z,16.6
2017-05-21T00:37:07.810Z,16.6
2017-05-21T00:38:10.395Z,16.6
2017-05-21T00:39:13.818Z,16.6
2017-05-21T00:40:15.889Z,16.5
2017-05-21T00:41:18.742Z,16.5
2017-05-21T00:42:21.846Z,16.5
2017-05-21T00:43:24.195Z,16.5
2017-05-21T00:45:29.456Z,16.5
2017-05-21T00:46:32.306Z,16.5
2017-05-21T00:47:35.735Z,16.5
2017-05-21T00:48:38.522Z,16.5
2017-05-21T00:49:40.738Z,16.5
2017-05-21T00:50:43.934Z,16.4
2017-05-21T00:51:46.151Z,16.4
2017-05-21T00:52:49.125Z,16.4
2017-05-21T00:53:52.032Z,16.4
2017-05-21T00:54:54.245Z,16.4
2017-05-21T00:55:57.092Z,16.4
2017-05-21T00:56:59.949Z,16.4
2017-05-21T00:58:03.054Z,16.4
2017-05-21T00:59:05.437Z,16.3
2017-05-21T01:00:08.153Z,16.3
2017-05-21T01:01:10.998Z,16.3
2017-05-21T01:02:13.717Z,16.3
2017-05-21T01:03:16.816Z,16.3
2017-05-21T01:04:19.165Z,16.3
2017-05-21T01:05:22.017Z,16.3
2017-05-21T01:06:24.733Z,16.3
2017-05-21T01:07:27.581Z,16.3
2017-05-21T01:08:30.685Z,16.3
2017-05-21T01:09:32.901Z,16.3
2017-05-21T01:10:35.484Z,16.3
2017-05-21T01:12:41.251Z,16.3
2017-05-21T01:13:44.358Z,16.2
2017-05-21T01:14:46.574Z,16.3
2017-05-21T01:15:49.421Z,16.3
2017-05-21T01:16:52.268Z,16.3
2017-05-21T01:17:55.119Z,16.2
2017-05-21T01:18:57.728Z,16.3
2017-05-21T01:20:00.594Z,16.3
2017-05-21T01:21:03.441Z,16.2
2017-05-21T01:22:05.653Z,16.2
2017-05-21T01:23:08.505Z,16.2
2017-05-21T01:24:11.387Z,16.2
2017-05-21T01:25:14.240Z,16.2
2017-05-21T01:26:17.645Z,16.2
2017-05-21T01:27:19.354Z,16.2
2017-05-21T01:28:22.068Z,16.2
2017-05-21T01:29:25.407Z,16.1
2017-05-21T01:30:27.987Z,16.1
2017-05-21T01:31:30.709Z,16.1
2017-05-21T01:32:33.423Z,16.1
2017-05-21T01:33:36.272Z,16.1
2017-05-21T01:34:38.886Z,16.1
2017-05-21T01:35:41.612Z,16.1
2017-05-21T01:36:44.459Z,16.1
2017-05-21T01:37:47.310Z,16.1
2017-05-21T01:38:50.163Z,16.1
2017-05-21T01:39:52.764Z,16.1
2017-05-21T01:40:55.621Z,16.1
2017-05-21T01:41:57.968Z,16.1
2017-05-21T01:43:00.817Z,16.1
2017-05-21T01:44:03.666Z,16.1
2017-05-21T01:45:06.689Z,16.1
2017-05-21T01:46:08.763Z,16.1
2017-05-21T01:47:12.116Z,16.1
2017-05-21T01:48:14.476Z,16.1
2017-05-21T01:49:17.331Z,16.1
2017-05-21T01:50:20.437Z,16.1
2017-05-21T01:51:22.786Z,16
2017-05-21T01:52:25.502Z,16
2017-05-21T01:53:28.353Z,16
2017-05-21T01:54:31.777Z,16
2017-05-21T01:55:33.740Z,16
2017-05-21T01:56:36.596Z,16
2017-05-21T01:57:39.315Z,16
2017-05-21T01:58:42.171Z,15.9
2017-05-21T01:59:45.019Z,15.9
2017-05-21T02:00:47.668Z,15.9
2017-05-21T02:02:52.662Z,15.9
2017-05-21T02:03:56.015Z,15.8
2017-05-21T02:04:58.420Z,15.8
2017-05-21T02:06:01.525Z,15.8
2017-05-21T02:07:03.733Z,15.8
2017-05-21T02:08:06.642Z,15.8
2017-05-21T02:09:09.355Z,15.8
2017-05-21T02:10:12.069Z,15.8
2017-05-21T02:11:15.039Z,15.8
2017-05-21T02:12:17.891Z,15.8
2017-05-21T02:13:20.737Z,15.8
2017-05-21T02:14:23.083Z,15.8
2017-05-21T02:15:25.803Z,15.8
2017-05-21T02:16:28.772Z,15.8
2017-05-21T02:17:31.623Z,15.7
2017-05-21T02:18:34.207Z,15.7
2017-05-21T02:19:36.921Z,15.7
2017-05-21T02:20:39.768Z,15.7
2017-05-21T02:21:42.922Z,15.6
2017-05-21T02:22:45.266Z,15.6
2017-05-21T02:24:50.529Z,15.6
2017-05-21T02:25:53.377Z,15.6
2017-05-21T02:26:56.529Z,15.6
2017-05-21T02:27:58.879Z,15.6
2017-05-21T02:29:01.728Z,15.6
2017-05-21T02:30:04.310Z,15.6
2017-05-21T02:31:07.025Z,15.6
2017-05-21T02:32:10.042Z,15.6
2017-05-21T02:33:12.389Z,15.6
2017-05-21T02:34:15.243Z,15.6
2017-05-21T02:35:18.092Z,15.6
2017-05-21T02:36:20.809Z,15.6
2017-05-21T02:37:23.914Z,15.6
2017-05-21T02:38:26.312Z,15.5
2017-05-21T02:39:29.157Z,15.6
2017-05-21T02:40:31.873Z,15.5
2017-05-21T02:41:34.081Z,15.5
2017-05-21T02:42:37.551Z,15.5
2017-05-21T02:43:39.760Z,15.4
2017-05-21T02:44:42.475Z,15.4
2017-05-21T02:45:45.321Z,15.4
2017-05-21T02:46:48.177Z,15.4
2017-05-21T02:47:51.280Z,15.5
2017-05-21T02:48:53.625Z,15.5
2017-05-21T02:49:56.478Z,15.4
2017-05-21T02:50:58.818Z,15.5
2017-05-21T02:52:01.471Z,15.4
2017-05-21T02:53:04.640Z,15.5
2017-05-21T02:54:06.981Z,15.4
2017-05-21T02:55:09.569Z,15.4
2017-05-21T02:56:12.422Z,15.4
2017-05-21T02:57:15.271Z,15.4
2017-05-21T02:58:18.373Z,15.4
2017-05-21T02:59:20.723Z,15.3
2017-05-21T03:00:23.572Z,15.3
2017-05-21T03:01:26.414Z,15.3
2017-05-21T03:02:28.996Z,15.3
2017-05-21T03:03:32.090Z,15.3
2017-05-21T03:04:34.299Z,15.3
2017-05-21T03:05:37.015Z,15.3
2017-05-21T03:06:39.730Z,15.3
2017-05-21T03:07:42.448Z,15.3
2017-05-21T03:08:45.555Z,15.3
2017-05-21T03:09:47.761Z,15.3
2017-05-21T03:10:50.604Z,15.3
2017-05-21T03:11:53.318Z,15.3
2017-05-21T03:12:56.166Z,15.3
2017-05-21T03:13:59.313Z,15.3
2017-05-21T03:15:01.657Z,15.2
2017-05-21T03:16:04.535Z,15.2
2017-05-21T03:17:07.248Z,15.2
2017-05-21T03:18:10.156Z,15.1
2017-05-21T03:19:12.804Z,15.1
2017-05-21T03:20:15.068Z,15.1
2017-05-21T03:21:17.782Z,15.1
2017-05-21T03:22:20.892Z,15.1
2017-05-21T03:23:23.743Z,15.1
2017-05-21T03:24:26.256Z,15.1
2017-05-21T03:25:28.966Z,15.2
2017-05-21T03:26:31.686Z,15.1
2017-05-21T03:27:34.532Z,15.1
2017-05-21T03:28:37.109Z,15.1
2017-05-21T03:29:40.067Z,15.1
2017-05-21T03:30:42.781Z,15.1
2017-05-21T03:31:45.129Z,15.1
2017-05-21T03:32:47.980Z,15.1
2017-05-21T03:33:51.235Z,15.1
2017-05-21T03:34:53.883Z,15.1
2017-05-21T03:35:56.226Z,15.1
2017-05-21T03:36:59.076Z,15
2017-05-21T03:38:01.921Z,15
2017-05-21T03:39:04.266Z,15
2017-05-21T03:40:07.367Z,15
2017-05-21T03:41:09.710Z,15
2017-05-21T03:42:13.122Z,15
2017-05-21T03:43:15.333Z,15
2017-05-21T03:44:17.914Z,15
2017-05-21T03:45:21.013Z,15
2017-05-21T03:46:23.354Z,15
2017-05-21T03:47:25.935Z,15
2017-05-21T03:48:29.019Z,15
2017-05-21T03:49:32.425Z,15
2017-05-21T03:50:34.429Z,15
2017-05-21T03:51:37.139Z,15
2017-05-21T03:53:42.398Z,15
2017-05-21T03:54:45.250Z,15
2017-05-21T03:55:48.350Z,15
2017-05-21T03:56:50.694Z,15
2017-05-21T03:57:53.545Z,15
2017-05-21T03:58:56.952Z,15
2017-05-21T03:59:58.792Z,15
2017-05-21T04:01:02.001Z,15
2017-05-21T04:02:04.342Z,15
2017-05-21T04:03:07.187Z,15
2017-05-21T04:04:09.768Z,15
2017-05-21T04:05:12.616Z,15
2017-05-21T04:06:15.716Z,15
2017-05-21T04:07:17.923Z,15
2017-05-21T04:08:20.768Z,15
2017-05-21T04:09:23.624Z,15
2017-05-21T04:10:26.336Z,15
2017-05-21T04:11:29.436Z,15
2017-05-21T04:12:31.779Z,15
2017-05-21T04:13:34.489Z,15
2017-05-21T04:14:37.341Z,15
2017-05-21T04:15:39.688Z,15
2017-05-21T04:16:43.156Z,15
2017-05-21T04:17:45.496Z,15
2017-05-21T04:18:48.347Z,15
2017-05-21T04:19:50.923Z,15
2017-05-21T04:20:54.333Z,15
2017-05-21T04:21:56.435Z,15
2017-05-21T04:22:59.283Z,15
2017-05-21T04:24:01.635Z,15
2017-05-21T04:25:04.483Z,15
2017-05-21T04:26:07.333Z,15
2017-05-21T04:27:10.434Z,15.1
2017-05-21T04:28:12.645Z,15.1
2017-05-21T04:29:15.367Z,15.1
2017-05-21T04:30:18.213Z,15.1
2017-05-21T04:31:20.984Z,15.1
2017-05-21T04:32:24.086Z,15.1
2017-05-21T04:33:26.295Z,15.1
2017-05-21T04:34:29.002Z,15.1
2017-05-21T04:35:31.853Z,15.1
2017-05-21T04:36:34.699Z,15.1
2017-05-21T04:37:37.843Z,15.1
2017-05-21T04:38:40.185Z,15.1
2017-05-21T04:39:42.899Z,15.1
2017-05-21T04:40:45.745Z,15.1
2017-05-21T04:41:48.589Z,15.2
2017-05-21T04:42:51.553Z,15.2
2017-05-21T04:43:54.959Z,15.2
2017-05-21T04:44:56.807Z,15.2
2017-05-21T04:45:59.656Z,15.2
2017-05-21T04:47:02.502Z,15.2
2017-05-21T04:48:06.213Z,15.2
2017-05-21T04:49:08.101Z,15.2
2017-05-21T04:50:10.814Z,15.2
2017-05-21T04:51:13.387Z,15.3
2017-05-21T04:52:16.367Z,15.3
2017-05-21T04:53:19.386Z,15.3
2017-05-21T04:54:21.468Z,15.3
2017-05-21T04:55:24.682Z,15.3
2017-05-21T04:56:27.455Z,15.3
2017-05-21T04:57:30.173Z,15.3
2017-05-21T04:58:33.189Z,15.3
2017-05-21T04:59:35.395Z,15.3
2017-05-21T05:00:38.245Z,15.3
2017-05-21T05:01:41.464Z,15.3
2017-05-21T05:02:44.726Z,15.3
2017-05-21T05:03:47.049Z,15.3
2017-05-21T05:04:49.258Z,15.4
2017-05-21T05:05:52.477Z,15.4
2017-05-21T05:06:55.326Z,15.4
2017-05-21T05:07:58.173Z,15.4
2017-05-21T05:09:00.776Z,15.4
2017-05-21T05:10:03.623Z,15.4
2017-05-21T05:11:06.469Z,15.4
2017-05-21T05:12:09.181Z,15.5
2017-05-21T05:13:11.891Z,15.5
2017-05-21T05:14:15.042Z,15.5
2017-05-21T05:15:17.386Z,15.5
2017-05-21T05:16:20.237Z,15.5
2017-05-21T05:17:22.948Z,15.5
2017-05-21T05:18:25.525Z,15.5
2017-05-21T05:19:28.541Z,15.5
2017-05-21T05:20:31.961Z,15.5
2017-05-21T05:21:34.314Z,15.5
2017-05-21T05:22:37.025Z,15.5
2017-05-21T05:23:39.739Z,15.6
2017-05-21T05:24:42.888Z,15.6
2017-05-21T05:25:45.239Z,15.6
2017-05-21T05:26:47.945Z,15.6
2017-05-21T05:27:51.026Z,15.6
2017-05-21T05:28:53.869Z,15.6
2017-05-21T05:29:57.029Z,15.6
2017-05-21T05:30:59.394Z,15.6
2017-05-21T05:32:02.247Z,15.6
2017-05-21T05:33:05.097Z,15.6
2017-05-21T05:34:07.943Z,15.6
2017-05-21T05:35:11.089Z,15.6
2017-05-21T05:36:13.431Z,15.6
2017-05-21T05:37:16.274Z,15.6
2017-05-21T05:38:18.992Z,15.6
2017-05-21T05:39:21.844Z,15.7
2017-05-21T05:40:24.853Z,15.7
2017-05-21T05:41:27.196Z,15.7
2017-05-21T05:42:30.046Z,15.8
2017-05-21T05:43:32.900Z,15.8
2017-05-21T05:44:35.752Z,15.8
2017-05-21T05:45:38.770Z,15.8
2017-05-21T05:46:42.041Z,15.8
2017-05-21T05:47:44.391Z,15.8
2017-05-21T05:48:47.104Z,15.8
2017-05-21T05:49:49.952Z,15.9
2017-05-21T05:50:53.609Z,15.9
2017-05-21T05:51:55.445Z,16
2017-05-21T05:52:58.299Z,16
2017-05-21T05:54:01.146Z,16
2017-05-21T05:55:03.993Z,16
2017-05-21T05:56:07.088Z,16
2017-05-21T05:57:09.433Z,16
2017-05-21T05:58:12.019Z,16
2017-05-21T05:59:15.378Z,16
2017-05-21T06:00:18.148Z,16
2017-05-21T06:01:21.293Z,16
2017-05-21T06:02:23.635Z,16
2017-05-21T06:03:26.353Z,16
2017-05-21T06:04:29.566Z,16
2017-05-21T06:05:32.274Z,16
2017-05-21T06:06:35.369Z,16
2017-05-21T06:07:37.574Z,16.1
2017-05-21T06:08:40.795Z,16.1
2017-05-21T06:09:43.649Z,16.1
2017-05-21T06:10:46.501Z,16.1
2017-05-21T06:11:49.466Z,16.1
2017-05-21T06:12:52.174Z,16.1
2017-05-21T06:13:55.017Z,16.1
2017-05-21T06:14:57.864Z,16.1
2017-05-21T06:16:00.717Z,16.1
2017-05-21T06:18:06.594Z,16.1
2017-05-21T06:19:08.948Z,16.2
2017-05-21T06:20:11.795Z,16.2
2017-05-21T06:22:17.552Z,16.3
2017-05-21T06:23:20.566Z,16.3
2017-05-21T06:24:23.418Z,16.3
2017-05-21T06:25:25.995Z,16.3
2017-05-21T06:26:29.074Z,16.3
2017-05-21T06:27:31.790Z,16.3
2017-05-21T06:28:34.938Z,16.3
2017-05-21T06:29:37.786Z,16.3
2017-05-21T06:30:40.640Z,16.3
2017-05-21T06:31:43.487Z,16.3
2017-05-21T06:32:46.128Z,16.3
2017-05-21T06:33:49.141Z,16.3
2017-05-21T06:34:51.985Z,16.3
2017-05-21T06:35:54.893Z,16.3
2017-05-21T06:36:57.238Z,16.4
2017-05-21T06:38:00.093Z,16.4
2017-05-21T06:39:03.249Z,16.4
2017-05-21T06:40:06.096Z,16.4
2017-05-21T06:41:08.942Z,16.4
2017-05-21T06:42:11.789Z,16.4
2017-05-21T06:43:14.499Z,16.5
2017-05-21T06:44:17.581Z,16.5
2017-05-21T06:45:20.431Z,16.5
2017-05-21T06:47:26.053Z,16.5
2017-05-21T06:48:28.767Z,16.5
2017-05-21T06:49:31.862Z,16.5
2017-05-21T06:50:34.574Z,16.5
2017-05-21T06:51:37.286Z,16.6
2017-05-21T06:52:40.004Z,16.6
2017-05-21T06:53:42.852Z,16.6
2017-05-21T06:54:45.961Z,16.6
2017-05-21T06:55:48.672Z,16.6
2017-05-21T06:56:51.385Z,16.6
2017-05-21T06:57:54.730Z,16.7
2017-05-21T06:58:57.449Z,16.7
2017-05-21T07:00:00.555Z,16.7
2017-05-21T07:01:02.903Z,16.7
2017-05-21T07:02:05.615Z,16.7
2017-05-21T07:03:08.965Z,16.8
2017-05-21T07:04:11.813Z,16.8
2017-05-21T07:05:14.780Z,16.8
2017-05-21T07:06:17.127Z,16.8
2017-05-21T07:07:19.843Z,16.8
2017-05-21T07:08:23.257Z,16.8
2017-05-21T07:09:25.968Z,16.8
2017-05-21T07:10:28.987Z,16.8
2017-05-21T07:11:31.697Z,16.9
2017-05-21T07:12:34.549Z,16.9
2017-05-21T07:13:37.394Z,16.9
2017-05-21T07:14:40.249Z,16.9
2017-05-21T07:15:43.274Z,17
2017-05-21T07:16:45.987Z,17
2017-05-21T07:17:48.833Z,17
2017-05-21T07:19:54.326Z,17
2017-05-21T07:20:57.430Z,17
2017-05-21T07:22:00.279Z,17
2017-05-21T07:24:05.907Z,17.1
2017-05-21T07:25:08.755Z,17.1
2017-05-21T07:26:11.854Z,17.1
2017-05-21T07:27:14.568Z,17.1
2017-05-21T07:28:17.411Z,17.1
2017-05-21T07:29:20.273Z,17.1
2017-05-21T07:30:23.116Z,17.1
2017-05-21T07:31:26.078Z,17.1
2017-05-21T07:32:28.792Z,17.1
2017-05-21T07:33:31.640Z,17.1
2017-05-21T07:34:34.858Z,17.2
2017-05-21T07:35:37.706Z,17.2
2017-05-21T07:36:40.676Z,17.2
2017-05-21T07:37:43.531Z,17.3
2017-05-21T07:38:46.244Z,17.3
2017-05-21T07:39:48.952Z,17.3
2017-05-21T07:40:51.800Z,17.3
2017-05-21T07:41:55.397Z,17.3
2017-05-21T07:42:57.743Z,17.4
2017-05-21T07:44:00.597Z,17.3
2017-05-21T07:45:03.182Z,17.3
2017-05-21T07:46:06.541Z,17.3
2017-05-21T07:47:09.638Z,17.2
2017-05-21T07:48:11.848Z,17.2
2017-05-21T07:49:15.199Z,17.3
2017-05-21T07:50:17.910Z,17.3
2017-05-21T07:51:20.617Z,17.3
2017-05-21T07:52:24.085Z,17.3
2017-05-21T07:53:26.433Z,17.3
2017-05-21T07:54:29.279Z,17.4
2017-05-21T07:55:32.123Z,17.4
2017-05-21T07:56:34.982Z,17.4
2017-05-21T07:57:38.504Z,17.3
2017-05-21T07:58:40.846Z,17.3
2017-05-21T07:59:43.558Z,17.3
2017-05-21T08:00:46.271Z,17.3
2017-05-21T08:01:49.623Z,17.3
2017-05-21T08:02:52.587Z,17.3
2017-05-21T08:03:55.299Z,17.3
2017-05-21T08:04:57.879Z,17.3
2017-05-21T08:06:00.722Z,17.3
2017-05-21T08:07:03.429Z,17.4
2017-05-21T08:08:06.758Z,17.4
2017-05-21T08:10:12.521Z,17.5
2017-05-21T08:11:15.367Z,17.5
2017-05-21T08:12:18.214Z,17.6
2017-05-21T08:13:21.310Z,17.6
2017-05-21T08:14:23.520Z,17.6
2017-05-21T08:15:26.737Z,17.6
2017-05-21T08:16:29.449Z,17.6
2017-05-21T08:17:32.297Z,17.8
2017-05-21T08:18:35.405Z,17.8
2017-05-21T08:19:38.153Z,17.9
2017-05-21T08:20:40.866Z,17.9
2017-05-21T08:21:43.581Z,17.8
2017-05-21T08:22:46.799Z,17.9
2017-05-21T08:23:49.893Z,17.9
2017-05-21T08:24:52.743Z,17.9
2017-05-21T08:25:55.585Z,17.9
2017-05-21T08:26:58.297Z,17.9
2017-05-21T08:28:01.157Z,17.9
2017-05-21T08:29:04.255Z,17.9
2017-05-21T08:30:07.105Z,17.9
2017-05-21T08:31:09.954Z,17.9
2017-05-21T08:32:12.539Z,17.9
2017-05-21T08:33:15.894Z,18
2017-05-21T08:34:18.914Z,18
2017-05-21T08:35:21.622Z,18
2017-05-21T08:36:24.470Z,18
2017-05-21T08:37:27.183Z,18
2017-05-21T08:38:29.763Z,18
2017-05-21T08:39:33.291Z,18
2017-05-21T08:40:35.867Z,18.1
2017-05-21T08:41:38.717Z,18.1
2017-05-21T08:42:41.566Z,18.1
2017-05-21T08:43:44.418Z,18.1
2017-05-21T08:44:47.435Z,18.1
2017-05-21T08:45:50.285Z,18.1
2017-05-21T08:46:52.996Z,18.1
2017-05-21T08:47:56.073Z,18.1
2017-05-21T08:48:58.785Z,18.1
2017-05-21T08:50:02.393Z,18.1
2017-05-21T08:51:05.300Z,18.2
2017-05-21T08:52:07.653Z,18.1
2017-05-21T08:53:10.502Z,18.2
2017-05-21T08:54:13.348Z,18.2
2017-05-21T08:56:19.358Z,18.2
2017-05-21T08:57:22.268Z,18.2
2017-05-21T08:58:24.986Z,18.2
2017-05-21T08:59:28.210Z,18.2
2017-05-21T09:00:31.059Z,18.3
2017-05-21T09:01:34.155Z,18.3
2017-05-21T09:02:36.495Z,18.3
2017-05-21T09:03:39.337Z,18.3
2017-05-21T09:04:42.417Z,18.3
2017-05-21T09:05:45.265Z,18.3
2017-05-21T09:06:48.417Z,18.3
2017-05-21T09:07:51.001Z,18.3
2017-05-21T09:08:53.711Z,18.2
2017-05-21T09:09:56.656Z,18.2
2017-05-21T09:10:59.873Z,18.1
2017-05-21T09:12:03.023Z,18.1
2017-05-21T09:13:05.366Z,18.1
2017-05-21T09:14:08.589Z,18.1
2017-05-21T09:15:11.301Z,18.1
2017-05-21T09:16:14.016Z,18.1
2017-05-21T09:17:17.115Z,18.1
2017-05-21T09:18:19.833Z,18.1
2017-05-21T09:19:22.690Z,18.1
2017-05-21T09:20:25.398Z,18.1
2017-05-21T09:21:28.614Z,18.1
2017-05-21T09:22:31.716Z,18.1
2017-05-21T09:23:34.427Z,18.1
2017-05-21T09:24:37.136Z,18.2
2017-05-21T09:25:39.847Z,18.2
2017-05-21T09:26:43.066Z,18.2
2017-05-21T09:27:46.165Z,18.3
2017-05-21T09:28:48.516Z,18.3
2017-05-21T09:29:51.732Z,18.3
2017-05-21T09:30:54.578Z,18.4
2017-05-21T09:31:57.284Z,18.4
2017-05-21T09:33:00.184Z,18.4
2017-05-21T09:34:02.765Z,18.4
2017-05-21T09:35:06.111Z,18.4
2017-05-21T09:36:08.957Z,18.3
2017-05-21T09:37:11.672Z,18.3
2017-05-21T09:38:14.776Z,18.3
2017-05-21T09:39:17.629Z,18.4
2017-05-21T09:40:20.476Z,18.4
2017-05-21T09:41:23.327Z,18.4
2017-05-21T09:42:26.040Z,18.4
2017-05-21T09:44:32.424Z,18.4
2017-05-21T09:45:34.632Z,18.4
2017-05-21T09:46:37.856Z,18.4
2017-05-21T09:47:40.703Z,18.4
2017-05-21T09:48:43.428Z,18.3
2017-05-21T09:49:46.394Z,18.3
2017-05-21T09:50:49.108Z,18.4
2017-05-21T09:51:51.957Z,18.4
2017-05-21T09:53:57.721Z,18.4
2017-05-21T09:55:01.324Z,18.5
2017-05-21T09:57:06.310Z,18.5
2017-05-21T09:58:09.657Z,18.5
2017-05-21T09:59:12.501Z,18.5
2017-05-21T10:01:18.514Z,18.5
2017-05-21T10:02:21.227Z,18.5
2017-05-21T10:03:24.081Z,18.5
2017-05-21T10:04:26.665Z,18.5
2017-05-21T10:05:29.516Z,18.5
2017-05-21T10:06:32.985Z,18.5
2017-05-21T10:07:35.194Z,18.5
2017-05-21T10:08:38.048Z,18.5
2017-05-21T10:09:40.622Z,18.5
2017-05-21T10:10:43.973Z,18.5
2017-05-21T10:11:46.933Z,18.5
2017-05-21T10:12:49.780Z,18.5
2017-05-21T10:14:55.543Z,18.5
2017-05-21T10:15:58.254Z,18.6
2017-05-21T10:17:01.354Z,18.6
2017-05-21T10:18:04.205Z,18.6
2017-05-21T10:19:06.920Z,18.6
2017-05-21T10:20:09.768Z,18.6
2017-05-21T10:21:12.621Z,18.6
2017-05-21T10:22:15.721Z,18.6
2017-05-21T10:23:18.571Z,18.6
2017-05-21T10:24:21.421Z,18.6
2017-05-21T10:25:24.133Z,18.6
2017-05-21T10:26:26.846Z,18.7
2017-05-21T10:27:30.447Z,18.7
2017-05-21T10:28:32.666Z,18.7
2017-05-21T10:29:35.882Z,18.7
2017-05-21T10:31:41.655Z,18.7
2017-05-21T10:32:44.753Z,18.7
2017-05-21T10:33:47.601Z,18.7
2017-05-21T10:34:50.317Z,18.7
2017-05-21T10:35:53.028Z,18.7
2017-05-21T10:36:56.247Z,18.7
2017-05-21T10:37:59.408Z,18.7
2017-05-21T10:39:01.752Z,18.7
2017-05-21T10:40:04.466Z,18.7
2017-05-21T10:41:07.318Z,18.7
2017-05-21T10:42:10.535Z,18.7
2017-05-21T10:43:13.639Z,18.7
2017-05-21T10:44:16.225Z,18.8
2017-05-21T10:45:19.137Z,18.8
2017-05-21T10:46:21.984Z,18.8
2017-05-21T10:47:24.832Z,18.8
2017-05-21T10:48:27.798Z,18.8
2017-05-21T10:49:30.655Z,18.8
2017-05-21T10:50:33.503Z,18.8
2017-05-21T10:51:36.226Z,18.8
2017-05-21T10:52:38.666Z,18.8
2017-05-21T10:53:42.187Z,18.9
2017-05-21T10:54:44.901Z,18.9
2017-05-21T10:55:47.613Z,18.9
2017-05-21T10:56:50.330Z,18.9
2017-05-21T10:57:53.684Z,18.9
2017-05-21T10:58:56.703Z,18.9
2017-05-21T10:59:59.550Z,18.9
2017-05-21T11:01:02.262Z,18.9
2017-05-21T11:02:05.110Z,18.9
2017-05-21T11:03:07.956Z,18.9
2017-05-21T11:04:10.922Z,18.9
2017-05-21T11:05:13.769Z,18.9
2017-05-21T11:06:16.622Z,18.9
2017-05-21T11:07:19.198Z,18.9
2017-05-21T11:09:24.942Z,19
2017-05-21T11:10:28.291Z,19
2017-05-21T11:11:31.142Z,19
2017-05-21T11:12:33.854Z,19
2017-05-21T11:13:36.432Z,19
2017-05-21T11:14:39.901Z,19
2017-05-21T11:15:42.245Z,19
2017-05-21T11:16:45.463Z,19
2017-05-21T11:17:48.314Z,19
2017-05-21T11:18:50.893Z,19
2017-05-21T11:19:54.367Z,19
2017-05-21T11:20:56.712Z,19
2017-05-21T11:21:59.559Z,19
2017-05-21T11:23:02.771Z,19
2017-05-21T11:24:05.616Z,19
2017-05-21T11:25:08.712Z,19
2017-05-21T11:26:11.426Z,19.1
2017-05-21T11:27:14.282Z,19.1
2017-05-21T11:28:17.131Z,19.1
2017-05-21T11:29:19.840Z,19.1
2017-05-21T11:30:22.801Z,19.1
2017-05-21T11:31:25.649Z,19.1
2017-05-21T11:32:28.410Z,19.2
2017-05-21T11:33:31.632Z,19.2
2017-05-21T11:34:34.206Z,19.2
2017-05-21T11:35:37.854Z,19.1
2017-05-21T11:36:40.193Z,19.1
2017-05-21T11:37:42.904Z,19.1
2017-05-21T11:38:45.993Z,19.1
2017-05-21T11:39:48.707Z,19.1
2017-05-21T11:40:51.859Z,19.1
2017-05-21T11:41:54.702Z,19.1
2017-05-21T11:42:57.286Z,19.1
2017-05-21T11:44:00.640Z,19.1
2017-05-21T11:45:03.216Z,19.1
2017-05-21T11:46:06.049Z,19.1
2017-05-21T11:47:08.893Z,19.1
2017-05-21T11:48:11.467Z,19.1
2017-05-21T11:49:14.818Z,19.1
2017-05-21T11:50:17.531Z,19.1
2017-05-21T11:51:20.683Z,19.1
2017-05-21T11:52:23.532Z,19.1
2017-05-21T11:53:26.379Z,19.1
2017-05-21T11:54:29.101Z,19.2
2017-05-21T11:55:31.951Z,19.2
2017-05-21T11:56:35.055Z,19.2
2017-05-21T11:57:37.834Z,19.2
2017-05-21T11:58:40.720Z,19.3
2017-05-21T11:59:43.442Z,19.3
2017-05-21T12:00:46.791Z,19.3
2017-05-21T12:02:52.802Z,19.3
2017-05-21T12:03:55.144Z,19.3
2017-05-21T12:04:57.913Z,19.3
2017-05-21T12:06:00.765Z,19.3
2017-05-21T12:07:03.847Z,19.3
2017-05-21T12:08:07.001Z,19.3
2017-05-21T12:09:09.712Z,19.3
2017-05-21T12:10:12.422Z,19.4
2017-05-21T12:11:15.831Z,19.3
2017-05-21T12:12:18.041Z,19.3
2017-05-21T12:13:21.644Z,19.3
2017-05-21T12:14:23.992Z,19.3
2017-05-21T12:15:26.706Z,19.4
2017-05-21T12:16:29.927Z,19.4
2017-05-21T12:17:32.772Z,19.4
2017-05-21T12:18:35.740Z,19.4
2017-05-21T12:19:38.452Z,19.4
2017-05-21T12:20:41.306Z,19.4
2017-05-21T12:21:44.391Z,19.4
2017-05-21T12:22:47.241Z,19.4
2017-05-21T12:23:50.253Z,19.4
2017-05-21T12:24:53.098Z,19.4
2017-05-21T12:25:55.946Z,19.4
2017-05-21T12:26:58.797Z,19.4
2017-05-21T12:28:01.510Z,19.4
2017-05-21T12:29:04.659Z,19.4
2017-05-21T12:30:07.504Z,19.4
2017-05-21T12:31:10.217Z,19.4
2017-05-21T12:32:13.066Z,19.4
2017-05-21T12:33:15.913Z,19.4
2017-05-21T12:34:19.015Z,19.4
2017-05-21T12:35:21.733Z,19.4
2017-05-21T12:36:24.588Z,19.5
2017-05-21T12:37:27.301Z,19.5
2017-05-21T12:39:33.733Z,19.5
2017-05-21T12:40:35.942Z,19.5
2017-05-21T12:41:39.023Z,19.5
2017-05-21T12:42:41.742Z,19.5
2017-05-21T12:43:45.092Z,19.5
2017-05-21T12:44:48.060Z,19.5
2017-05-21T12:45:50.774Z,19.5
2017-05-21T12:46:53.488Z,19.5
2017-05-21T12:47:56.715Z,19.5
2017-05-21T12:48:59.296Z,19.5
2017-05-21T12:50:02.267Z,19.5
2017-05-21T12:51:05.115Z,19.5
2017-05-21T12:52:07.824Z,19.5
2017-05-21T12:53:10.670Z,19.5
2017-05-21T12:54:13.883Z,19.5
2017-05-21T12:55:16.984Z,19.5
2017-05-21T12:56:19.329Z,19.5
2017-05-21T12:57:22.682Z,19.5
2017-05-21T12:58:25.533Z,19.5
2017-05-21T12:59:28.382Z,19.5
2017-05-21T13:00:31.482Z,19.5
2017-05-21T13:01:33.827Z,19.5
2017-05-21T13:02:36.543Z,19.5
2017-05-21T13:03:39.889Z,19.5
2017-05-21T13:04:42.605Z,19.5
2017-05-21T13:05:45.575Z,19.5
2017-05-21T13:06:48.157Z,19.5
2017-05-21T13:07:51.375Z,19.5
2017-05-21T13:08:54.225Z,19.5
2017-05-21T13:09:56.943Z,19.5
2017-05-21T13:11:00.043Z,19.5
2017-05-21T13:12:02.761Z,19.5
2017-05-21T13:13:05.486Z,19.5
2017-05-21T13:14:08.836Z,19.5
2017-05-21T13:15:11.682Z,19.5
2017-05-21T13:16:14.649Z,19.5
2017-05-21T13:17:17.363Z,19.5
2017-05-21T13:18:19.943Z,19.5
2017-05-21T13:19:23.093Z,19.5
2017-05-21T13:20:25.939Z,19.5
2017-05-21T13:21:28.771Z,19.5
2017-05-21T13:22:31.486Z,19.5
2017-05-21T13:23:34.341Z,19.5
2017-05-21T13:24:37.189Z,19.5
2017-05-21T13:25:40.099Z,19.5
2017-05-21T13:26:43.433Z,19.5
2017-05-21T13:27:45.643Z,19.5
2017-05-21T13:28:48.863Z,19.5
2017-05-21T13:29:51.577Z,19.5
2017-05-21T13:30:54.285Z,19.5
2017-05-21T13:31:57.889Z,19.5
2017-05-21T13:33:00.114Z,19.5
2017-05-21T13:34:03.468Z,19.5
2017-05-21T13:36:09.096Z,19.6
2017-05-21T13:37:12.198Z,19.6
2017-05-21T13:38:14.784Z,19.6
2017-05-21T13:39:17.637Z,19.6
2017-05-21T13:40:20.482Z,19.6
2017-05-21T13:41:23.328Z,19.6
2017-05-21T13:42:26.802Z,19.7
2017-05-21T13:43:29.011Z,19.7
2017-05-21T13:44:31.588Z,19.7
2017-05-21T13:45:34.806Z,19.8
2017-05-21T13:46:38.209Z,19.8
2017-05-21T13:47:40.820Z,19.8
2017-05-21T13:48:43.532Z,19.8
2017-05-21T13:49:46.378Z,19.8
2017-05-21T13:50:49.599Z,19.7
2017-05-21T13:51:52.179Z,19.7
2017-05-21T13:52:55.513Z,19.7
2017-05-21T13:53:58.232Z,19.7
2017-05-21T13:55:00.950Z,19.7
2017-05-21T13:56:03.807Z,19.7
2017-05-21T13:57:06.528Z,19.8
2017-05-21T13:58:09.627Z,19.7
2017-05-21T13:59:12.343Z,19.7
2017-05-21T14:00:15.051Z,19.7
2017-05-21T14:01:18.399Z,19.7
2017-05-21T14:03:24.415Z,19.7
2017-05-21T14:04:26.763Z,19.7
2017-05-21T14:05:29.610Z,19.7
2017-05-21T14:07:35.373Z,19.7
2017-05-21T14:08:38.896Z,19.7
2017-05-21T14:09:41.665Z,19.7
2017-05-21T14:10:44.513Z,19.7
2017-05-21T14:11:47.222Z,19.7
2017-05-21T14:12:49.936Z,19.7
2017-05-21T14:13:53.087Z,19.7
2017-05-21T14:14:55.668Z,19.7
2017-05-21T14:18:04.632Z,19.7
2017-05-21T14:19:07.607Z,19.7
2017-05-21T14:20:10.451Z,19.7
2017-05-21T14:21:13.162Z,19.7
2017-05-21T14:22:15.870Z,19.6
2017-05-21T14:23:18.724Z,19.7
2017-05-21T14:24:21.824Z,19.7
2017-05-21T14:25:24.406Z,19.6
2017-05-21T14:26:27.435Z,19.6
2017-05-21T14:27:30.035Z,19.6
2017-05-21T14:28:33.394Z,19.6
2017-05-21T14:30:39.324Z,19.6
2017-05-21T14:31:41.533Z,19.6